Time;durP1;ratioP1;P1;durP2;ratioP2;P2;SDS_P1;SDS_P2;PMS_P1;PMS_P2;Temp;Humidity;BMP_temperature;BMP_pressure;BME280_temperature;BME280_humidity;BME280_pressure;Samples;Min_cycle;Max_cycle;Signal;HPM_P1;HPM_P2
2024/04/03 00:00:19;;;;;;;1.75;0.82;;;16.90;42.80;;;;;;6295338;28;20027;-74
2024/04/03 00:03:19;;;;;;;1.75;1.02;;;16.90;43.00;;;;;;6293253;28;20024;-74
2024/04/03 00:06:20;;;;;;;1.08;0.63;;;16.80;43.20;;;;;;6288444;28;20028;-75
2024/04/03 00:09:21;;;;;;;1.55;0.90;;;16.80;43.50;;;;;;6286774;28;20474;-71
2024/04/03 00:12:22;;;;;;;5.68;1.10;;;16.80;43.60;;;;;;6301679;28;20126;-75
2024/04/03 00:15:23;;;;;;;2.33;1.00;;;16.80;43.60;;;;;;6290463;28;20127;-73
2024/04/03 00:18:24;;;;;;;2.10;0.82;;;16.80;43.60;;;;;;6310403;28;20024;-72
2024/04/03 00:21:25;;;;;;;2.00;0.95;;;16.70;43.70;;;;;;6310095;28;20126;-73
2024/04/03 00:24:26;;;;;;;2.92;1.00;;;16.70;43.80;;;;;;6280221;28;20149;-73
2024/04/03 00:27:28;;;;;;;1.48;0.88;;;16.70;43.90;;;;;;6295671;28;20028;-74
2024/04/03 00:30:29;;;;;;;5.40;1.20;;;16.60;44.20;;;;;;6295620;28;20073;-73
2024/04/03 00:33:30;;;;;;;1.27;0.80;;;16.50;44.20;;;;;;6310461;28;20346;-73
2024/04/03 00:36:31;;;;;;;3.03;1.00;;;16.50;44.30;;;;;;6309137;28;20428;-73
2024/04/03 00:39:34;;;;;;;1.40;0.77;;;16.40;44.30;;;;;;6273377;28;20099;-74
2024/04/03 00:42:35;;;;;;;0.68;0.63;;;16.50;44.50;;;;;;6298740;28;20016;-72
2024/04/03 00:45:36;;;;;;;4.22;1.00;;;16.50;44.40;;;;;;6308044;28;20117;-74
2024/04/03 00:48:37;;;;;;;4.75;0.90;;;16.50;44.40;;;;;;6310376;28;20111;-74
2024/04/03 00:51:38;;;;;;;2.80;0.77;;;16.50;44.50;;;;;;6308712;28;20020;-73
2024/04/03 00:54:41;;;;;;;2.05;0.70;;;16.50;44.50;;;;;;6291922;28;20123;-71
2024/04/03 00:57:44;;;;;;;1.38;0.93;;;16.50;44.60;;;;;;6283166;28;20028;-71
2024/04/03 01:00:45;;;;;;;1.70;0.70;;;16.50;44.60;;;;;;6275885;28;20421;-73
2024/04/03 01:03:46;;;;;;;1.92;1.00;;;16.50;44.50;;;;;;6307799;28;20066;-73
2024/04/03 01:06:47;;;;;;;4.40;1.13;;;16.50;44.50;;;;;;6271780;28;20107;-72
2024/04/03 01:09:48;;;;;;;4.22;1.02;;;16.60;44.60;;;;;;6294604;28;20123;-73
2024/04/03 01:12:50;;;;;;;3.88;0.88;;;16.50;44.50;;;;;;6310181;28;20016;-74
2024/04/03 01:16:00;;;;;;;4.35;1.00;;;16.50;44.50;;;;;;6290765;28;20032;-73
2024/04/03 01:19:01;;;;;;;0.93;0.70;;;16.50;44.70;;;;;;6295113;28;20025;-73
2024/04/03 01:22:02;;;;;;;2.28;0.95;;;16.40;44.60;;;;;;6306740;28;20008;-73
2024/04/03 01:25:04;;;;;;;1.63;0.80;;;16.50;44.70;;;;;;6279643;28;20433;-73
2024/04/03 01:28:05;;;;;;;3.50;0.82;;;16.60;44.70;;;;;;6293948;28;20020;-74
2024/04/03 01:31:05;;;;;;;2.72;0.68;;;16.50;44.70;;;;;;6301232;28;20070;-71
2024/04/03 01:34:06;;;;;;;1.50;0.75;;;16.50;44.80;;;;;;6309747;28;20561;-73
2024/04/03 01:37:08;;;;;;;2.67;0.98;;;16.60;44.80;;;;;;6309977;28;20024;-73
2024/04/03 01:40:09;;;;;;;2.67;0.77;;;16.50;44.80;;;;;;6285164;28;20085;-74
2024/04/03 01:43:10;;;;;;;5.18;0.90;;;16.50;45.00;;;;;;6308789;28;20020;-73
2024/04/03 01:46:11;;;;;;;2.95;0.80;;;16.50;45.20;;;;;;6289670;28;20499;-73
2024/04/03 01:49:12;;;;;;;2.10;1.05;;;16.40;45.40;;;;;;6303666;28;20242;-74
2024/04/03 01:52:14;;;;;;;1.15;0.65;;;16.60;45.80;;;;;;6293375;28;20067;-73
2024/04/03 01:55:15;;;;;;;2.42;1.02;;;16.40;45.90;;;;;;6275886;28;20148;-74
2024/04/03 01:58:16;;;;;;;1.10;0.80;;;16.30;46.20;;;;;;6301986;28;20035;-73
2024/04/03 02:01:19;;;;;;;1.77;1.00;;;16.30;46.50;;;;;;6302595;28;20306;-73
2024/04/03 02:04:20;;;;;;;1.45;0.63;;;16.20;47.00;;;;;;6297309;28;20025;-73
2024/04/03 02:07:20;;;;;;;5.30;1.17;;;16.20;46.50;;;;;;6309489;28;20030;-73
2024/04/03 02:10:21;;;;;;;1.35;0.98;;;16.10;46.70;;;;;;6291254;28;20048;-72
2024/04/03 02:13:22;;;;;;;3.60;0.77;;;16.10;46.80;;;;;;6302770;28;20479;-72
2024/04/03 02:16:25;;;;;;;4.80;1.15;;;16.10;46.90;;;;;;6299239;28;20016;-74
2024/04/03 02:19:25;;;;;;;1.23;0.90;;;16.10;46.90;;;;;;6308643;28;20069;-73
2024/04/03 02:22:26;;;;;;;2.58;0.85;;;16.00;46.80;;;;;;6309007;28;20024;-75
2024/04/03 02:25:27;;;;;;;2.33;0.80;;;16.10;46.80;;;;;;6308387;28;20115;-72
2024/04/03 02:28:28;;;;;;;4.85;1.63;;;16.10;46.70;;;;;;6294137;28;20094;-74
2024/04/03 02:31:29;;;;;;;2.03;0.80;;;16.10;46.70;;;;;;6295364;28;20058;-74
2024/04/03 02:34:30;;;;;;;2.10;0.70;;;16.10;46.70;;;;;;6306491;28;20385;-73
2024/04/03 02:37:31;;;;;;;1.52;0.90;;;16.10;46.60;;;;;;6282430;28;20020;-73
2024/04/03 02:40:32;;;;;;;1.50;0.73;;;16.10;46.60;;;;;;6272059;28;20153;-73
2024/04/03 02:43:33;;;;;;;5.72;1.13;;;16.10;46.50;;;;;;6303766;28;20084;-73
2024/04/03 02:46:34;;;;;;;3.20;1.08;;;16.10;46.40;;;;;;6272690;28;20127;-74
2024/04/03 02:49:35;;;;;;;1.40;0.77;;;16.20;46.50;;;;;;6287610;28;20027;-74
2024/04/03 02:52:36;;;;;;;3.25;1.15;;;16.20;46.30;;;;;;6288219;28;20024;-74
2024/04/03 02:55:37;;;;;;;1.38;0.90;;;16.20;46.20;;;;;;6306662;28;20027;-74
2024/04/03 02:58:38;;;;;;;1.45;1.00;;;16.20;46.10;;;;;;6302681;28;20089;-74
2024/04/03 03:01:38;;;;;;;1.98;0.85;;;16.30;46.10;;;;;;6282364;28;20106;-73
2024/04/03 03:04:43;;;;;;;2.25;0.98;;;16.20;46.70;;;;;;6282544;28;20441;-73
2024/04/03 03:07:44;;;;;;;5.25;1.40;;;16.30;46.20;;;;;;6305541;28;20098;-73
2024/04/03 03:10:45;;;;;;;5.88;0.95;;;16.20;46.20;;;;;;6297358;28;20039;-73
2024/04/03 03:13:46;;;;;;;1.05;0.80;;;16.20;46.10;;;;;;6285966;28;20063;-74
2024/04/03 03:16:46;;;;;;;3.50;0.80;;;16.20;46.10;;;;;;6296682;28;20405;-73
2024/04/03 03:19:47;;;;;;;1.90;0.77;;;16.20;46.00;;;;;;6298287;28;20037;-74
2024/04/03 03:22:48;;;;;;;0.90;0.70;;;16.20;45.60;;;;;;6304647;28;20368;-73
2024/04/03 03:25:52;;;;;;;4.30;0.68;;;16.20;45.20;;;;;;6232023;28;1479724;-73
2024/04/03 03:28:53;;;;;;;0.45;0.45;;;16.30;45.20;;;;;;6286131;28;20081;-72
2024/04/03 03:31:54;;;;;;;1.13;0.60;;;16.40;44.80;;;;;;6272820;28;20031;-73
2024/04/03 03:34:55;;;;;;;2.90;0.80;;;16.40;44.40;;;;;;6298373;28;20032;-72
2024/04/03 03:37:56;;;;;;;1.13;0.50;;;16.50;43.90;;;;;;6304157;28;20034;-73
2024/04/03 03:40:57;;;;;;;0.52;0.40;;;16.60;43.50;;;;;;6296231;28;20409;-73
2024/04/03 03:43:58;;;;;;;2.08;0.40;;;16.70;43.20;;;;;;6301976;28;20463;-73
2024/04/03 03:46:59;;;;;;;0.98;0.40;;;16.70;42.70;;;;;;6293786;28;20029;-72
2024/04/03 03:53:19;;;;;;;1.85;0.43;;;16.90;41.70;;;;;;6282047;28;20028;-73
2024/04/03 03:56:20;;;;;;;0.30;0.30;;;17.00;40.70;;;;;;6300037;28;20016;-74
2024/04/03 03:59:21;;;;;;;0.38;0.22;;;17.10;39.90;;;;;;6307066;28;20389;-73
2024/04/03 04:02:22;;;;;;;1.35;0.40;;;17.20;38.80;;;;;;6268875;28;20471;-74
2024/04/03 04:05:23;;;;;;;0.40;0.28;;;17.20;37.90;;;;;;6297508;28;20131;-73
2024/04/03 04:08:23;;;;;;;1.73;0.32;;;17.30;37.40;;;;;;6298355;28;20471;-73
2024/04/03 04:11:24;;;;;;;0.10;0.10;;;17.40;37.00;;;;;;6294173;28;20030;-72
2024/04/03 04:14:25;;;;;;;0.35;0.17;;;17.50;37.00;;;;;;6301066;28;20028;-73
2024/04/03 04:17:26;;;;;;;0.10;0.10;;;17.50;36.70;;;;;;6293792;28;20069;-74
2024/04/03 04:20:27;;;;;;;4.13;0.35;;;17.60;37.00;;;;;;6297099;28;20104;-73
2024/04/03 04:23:28;;;;;;;0.40;0.22;;;17.60;37.20;;;;;;6293777;28;20426;-74
2024/04/03 04:26:30;;;;;;;0.98;0.17;;;17.60;37.10;;;;;;6298162;28;20078;-73
2024/04/03 04:29:32;;;;;;;0.50;0.30;;;17.60;37.00;;;;;;6303628;28;20043;-73
2024/04/03 04:32:33;;;;;;;1.52;0.45;;;17.70;37.30;;;;;;6297142;28;20020;-74
2024/04/03 04:35:34;;;;;;;0.28;0.22;;;17.60;36.60;;;;;;6289222;28;20429;-76
2024/04/03 04:38:34;;;;;;;1.52;0.30;;;17.60;36.70;;;;;;6287963;28;20021;-73
2024/04/03 04:41:35;;;;;;;0.35;0.30;;;17.60;36.90;;;;;;6296509;28;20024;-74
2024/04/03 04:44:36;;;;;;;0.10;0.10;;;17.60;37.10;;;;;;6306570;28;20047;-73
2024/04/03 04:47:37;;;;;;;0.45;0.20;;;17.60;37.30;;;;;;6289752;28;20087;-73
2024/04/03 04:50:38;;;;;;;6.43;0.40;;;17.50;37.70;;;;;;6284046;28;20114;-73
2024/04/03 04:53:38;;;;;;;0.70;0.10;;;17.50;38.30;;;;;;6291471;28;20022;-73
2024/04/03 04:56:39;;;;;;;1.55;0.45;;;17.40;38.60;;;;;;6292961;28;20013;-73
2024/04/03 04:59:40;;;;;;;0.05;0.05;;;17.40;39.00;;;;;;6286724;28;20020;-73
2024/04/03 05:02:41;;;;;;;0.70;0.20;;;17.30;39.30;;;;;;6290688;28;20029;-74
2024/04/03 05:05:42;;;;;;;0.40;0.30;;;17.20;39.60;;;;;;6310643;28;20270;-73
2024/04/03 05:08:43;;;;;;;0.10;0.10;;;17.20;39.90;;;;;;6291053;28;20055;-73
2024/04/03 05:11:44;;;;;;;0.63;0.20;;;17.20;40.20;;;;;;6293224;28;20133;-73
2024/04/03 05:14:45;;;;;;;0.35;0.20;;;17.20;40.30;;;;;;6263395;28;20035;-74
2024/04/03 05:17:46;;;;;;;1.08;0.40;;;17.20;40.50;;;;;;6306485;28;20049;-75
2024/04/03 05:20:47;;;;;;;0.70;0.43;;;17.20;40.60;;;;;;6310509;28;20078;-74
2024/04/03 05:23:48;;;;;;;0.90;0.70;;;17.20;40.40;;;;;;6302630;28;20020;-74
2024/04/03 05:26:49;;;;;;;2.55;0.60;;;17.20;40.60;;;;;;6286490;28;20508;-75
2024/04/03 05:29:49;;;;;;;1.13;0.57;;;17.30;40.80;;;;;;6291784;28;20862;-73
2024/04/03 05:32:51;;;;;;;0.25;0.22;;;17.30;40.90;;;;;;6285696;28;20412;-72
2024/04/03 05:35:59;;;;;;;0.20;0.20;;;17.30;40.80;;;;;;6289262;28;20186;-72
2024/04/03 05:39:00;;;;;;;0.95;0.40;;;17.30;40.80;;;;;;6306325;28;20022;-73
2024/04/03 05:42:01;;;;;;;0.20;0.20;;;17.20;41.60;;;;;;6303206;28;20017;-73
2024/04/03 05:45:02;;;;;;;0.57;0.30;;;17.20;41.40;;;;;;6284990;28;20012;-72
2024/04/03 05:48:03;;;;;;;1.85;0.40;;;17.10;41.60;;;;;;6293879;28;20089;-74
2024/04/03 05:51:05;;;;;;;1.30;0.15;;;17.10;41.90;;;;;;6307305;28;20097;-77
2024/04/03 05:54:06;;;;;;;2.78;0.43;;;17.10;42.20;;;;;;6288543;28;20047;-72
2024/04/03 05:57:07;;;;;;;0.22;0.22;;;17.00;42.60;;;;;;6308650;28;20035;-74
2024/04/03 06:00:08;;;;;;;0.28;0.28;;;17.00;43.10;;;;;;6284847;28;20012;-77
2024/04/03 06:03:12;;;;;;;0.85;0.43;;;16.90;43.20;;;;;;6295512;28;20043;-73
2024/04/03 06:06:13;;;;;;;0.25;0.20;;;16.80;43.20;;;;;;6304481;28;20009;-74
2024/04/03 06:09:14;;;;;;;0.70;0.50;;;16.80;43.40;;;;;;6283023;28;20437;-74
2024/04/03 06:12:15;;;;;;;0.32;0.32;;;16.80;43.60;;;;;;6299198;28;20016;-73
2024/04/03 06:15:16;;;;;;;1.15;0.45;;;16.80;43.60;;;;;;6296358;28;20032;-74
2024/04/03 06:18:17;;;;;;;0.47;0.40;;;16.80;43.60;;;;;;6277522;28;20020;-74
2024/04/03 06:21:20;;;;;;;0.40;0.40;;;16.80;43.90;;;;;;6300131;28;20118;-74
2024/04/03 06:24:21;;;;;;;1.80;0.70;;;16.80;44.10;;;;;;6293349;28;20468;-74
2024/04/03 06:27:22;;;;;;;0.75;0.50;;;16.80;44.50;;;;;;6309092;28;20028;-74
2024/04/03 06:30:23;;;;;;;0.65;0.40;;;16.80;44.70;;;;;;6285881;28;20461;-75
2024/04/03 06:33:24;;;;;;;0.20;0.20;;;16.80;45.00;;;;;;6287807;28;20038;-73
2024/04/03 06:36:29;;;;;;;0.80;0.52;;;16.70;45.20;;;;;;6270356;28;20084;-74
2024/04/03 06:39:31;;;;;;;0.40;0.40;;;16.70;45.30;;;;;;6309034;28;20027;-73
2024/04/03 06:42:32;;;;;;;0.30;0.30;;;16.70;45.30;;;;;;6300305;28;20075;-74
2024/04/03 06:45:33;;;;;;;1.55;0.60;;;16.70;45.40;;;;;;6290282;28;20461;-74
2024/04/03 06:48:35;;;;;;;0.38;0.20;;;16.70;45.40;;;;;;6302522;28;20067;-73
2024/04/03 06:51:36;;;;;;;0.43;0.43;;;16.90;45.30;;;;;;6290071;28;20008;-72
2024/04/03 06:54:37;;;;;;;1.35;0.80;;;16.70;45.20;;;;;;6292040;28;20028;-74
2024/04/03 06:57:38;;;;;;;0.95;0.50;;;16.70;45.30;;;;;;6307551;28;20095;-74
2024/04/03 07:00:39;;;;;;;1.30;0.43;;;16.70;45.40;;;;;;6307807;28;20700;-74
2024/04/03 07:03:40;;;;;;;3.58;0.45;;;16.70;45.40;;;;;;6285528;28;20013;-73
2024/04/03 07:06:40;;;;;;;1.88;0.57;;;16.70;45.70;;;;;;6304062;28;20028;-73
2024/04/03 07:09:42;;;;;;;0.73;0.38;;;16.70;45.80;;;;;;6297734;28;20060;-74
2024/04/03 07:12:43;;;;;;;0.50;0.20;;;16.70;46.00;;;;;;6300094;28;20076;-73
2024/04/03 07:15:48;;;;;;;1.92;0.90;;;16.70;46.10;;;;;;6295719;28;20032;-74
2024/04/03 07:18:52;;;;;;;1.85;0.70;;;16.70;46.50;;;;;;6300668;28;20047;-75
2024/04/03 07:21:53;;;;;;;2.05;0.50;;;16.60;46.60;;;;;;6298118;28;20016;-73
2024/04/03 07:24:54;;;;;;;1.35;0.43;;;16.60;47.30;;;;;;6302580;28;20031;-73
2024/04/03 07:27:57;;;;;;;1.08;0.90;;;16.60;47.10;;;;;;6296940;28;20052;-73
2024/04/03 07:30:58;;;;;;;7.82;0.80;;;16.60;47.20;;;;;;6306795;28;20085;-73
2024/04/03 07:33:59;;;;;;;2.33;0.60;;;16.60;47.30;;;;;;6295977;28;20033;-74
2024/04/03 07:36:59;;;;;;;1.42;0.57;;;16.50;48.20;;;;;;6283479;28;20017;-74
2024/04/03 07:40:00;;;;;;;3.90;0.70;;;16.40;47.90;;;;;;6296825;28;20028;-72
2024/04/03 07:43:02;;;;;;;2.28;0.75;;;16.40;48.10;;;;;;6294552;28;20013;-74
2024/04/03 07:46:03;;;;;;;0.70;0.47;;;16.40;48.10;;;;;;6300163;28;20039;-73
2024/04/03 07:49:05;;;;;;;1.25;0.60;;;16.40;48.10;;;;;;6300835;28;20119;-72
2024/04/03 07:52:05;;;;;;;3.08;1.48;;;16.30;48.10;;;;;;6301560;28;20024;-75
2024/04/03 07:55:14;;;;;;;2.97;0.63;;;16.40;48.20;;;;;;6289945;28;20039;-74
2024/04/03 07:58:14;;;;;;;;;;;16.40;48.30;;;;;;6305371;28;20107;-73
2024/04/03 08:01:15;;;;;;;0.30;0.30;;;16.40;48.20;;;;;;6305925;28;20002;-73
2024/04/03 08:04:16;;;;;;;0.70;0.35;;;16.40;48.00;;;;;;6305147;28;20107;-75
2024/04/03 08:07:17;;;;;;;0.40;0.30;;;16.40;47.70;;;;;;6266612;28;20070;-74
2024/04/03 08:10:20;;;;;;;1.30;0.50;;;16.40;47.50;;;;;;6292614;28;20043;-75
2024/04/03 08:13:22;;;;;;;1.88;0.80;;;16.40;47.50;;;;;;6287439;28;20094;-74
2024/04/03 08:16:23;;;;;;;1.20;0.68;;;16.50;47.60;;;;;;6281977;28;20039;-73
2024/04/03 08:19:24;;;;;;;3.40;0.70;;;16.60;47.60;;;;;;6287872;28;20641;-73
2024/04/03 08:22:25;;;;;;;7.45;1.10;;;16.80;47.50;;;;;;6289649;28;20012;-75
2024/04/03 08:25:25;;;;;;;1.25;0.98;;;16.90;47.50;;;;;;6301365;28;20123;-73
2024/04/03 08:28:26;;;;;;;1.33;0.60;;;17.00;47.70;;;;;;6292616;28;20464;-73
2024/04/03 08:31:27;;;;;;;2.63;1.10;;;17.00;47.90;;;;;;6285360;28;20069;-74
2024/04/03 08:34:29;;;;;;;3.78;1.00;;;17.10;48.30;;;;;;6310681;28;20111;-73
2024/04/03 08:37:30;;;;;;;1.77;1.10;;;17.10;48.50;;;;;;6303568;28;20474;-74
2024/04/03 08:40:31;;;;;;;7.30;2.50;;;17.10;48.70;;;;;;6311157;28;20015;-72
2024/04/03 08:43:34;;;;;;;12.43;3.22;;;17.10;49.20;;;;;;6300153;28;20016;-73
2024/04/03 08:46:37;;;;;;;13.77;1.95;;;17.20;49.50;;;;;;6275063;28;20012;-74
2024/04/03 08:49:37;;;;;;;5.78;2.53;;;17.20;49.80;;;;;;6307423;28;20118;-73
2024/04/03 08:52:39;;;;;;;9.70;1.70;;;17.30;49.90;;;;;;6308098;28;20008;-74
2024/04/03 08:55:41;;;;;;;6.88;1.60;;;17.40;50.00;;;;;;6287433;28;20039;-74
2024/04/03 08:58:42;;;;;;;5.15;1.67;;;17.40;50.00;;;;;;6310787;28;20016;-74
2024/04/03 09:01:43;;;;;;;2.85;1.30;;;17.50;50.20;;;;;;6292234;28;20020;-73
2024/04/03 09:04:44;;;;;;;2.05;1.10;;;17.40;50.20;;;;;;6310332;28;20020;-74
2024/04/03 09:07:45;;;;;;;4.13;1.55;;;17.40;50.30;;;;;;6311376;28;20090;-74
2024/04/03 09:10:59;;;;;;;4.38;1.77;;;17.40;50.20;;;;;;6310471;28;20023;-74
2024/04/03 09:14:00;;;;;;;4.03;0.88;;;17.50;50.10;;;;;;6298648;28;20143;-72
2024/04/03 09:17:02;;;;;;;3.95;1.55;;;17.50;49.80;;;;;;6285447;28;20027;-74
2024/04/03 09:20:04;;;;;;;1.45;0.80;;;17.50;49.60;;;;;;6302180;28;20066;-73
2024/04/03 09:23:08;;;;;;;2.58;0.90;;;17.60;49.50;;;;;;6309746;28;20106;-73
2024/04/03 09:26:09;;;;;;;2.30;0.95;;;17.60;49.40;;;;;;6286341;28;20058;-73
2024/04/03 09:29:11;;;;;;;2.40;0.80;;;17.60;49.90;;;;;;6266129;28;20119;-73
2024/04/03 09:32:12;;;;;;;1.10;0.85;;;17.60;49.30;;;;;;6288490;28;20051;-75
2024/04/03 09:35:16;;;;;;;3.33;0.82;;;17.60;49.10;;;;;;6291778;28;20402;-73
2024/04/03 09:38:17;;;;;;;6.68;0.70;;;17.60;49.00;;;;;;6302643;28;20440;-73
2024/04/03 09:41:20;;;;;;;0.85;0.77;;;17.70;48.80;;;;;;6298440;28;20131;-75
2024/04/03 09:44:24;;;;;;;1.10;0.70;;;17.80;49.20;;;;;;6297278;28;20025;-72
2024/04/03 09:47:25;;;;;;;1.05;0.73;;;17.90;48.20;;;;;;6296805;28;20016;-73
2024/04/03 09:50:43;;;;;;;5.05;1.92;;;18.00;48.10;;;;;;6305201;28;20119;-73
2024/04/03 09:53:44;;;;;;;9.40;3.17;;;18.30;47.80;;;;;;6291049;28;20037;-74
2024/04/03 09:56:54;;;;;;;4.72;2.20;;;18.50;47.30;;;;;;6295582;28;20111;-73
2024/04/03 09:59:57;;;;;;;6.45;1.40;;;18.60;46.80;;;;;;6285160;28;20032;-74
2024/04/03 10:02:58;;;;;;;3.45;1.73;;;18.60;47.30;;;;;;6263522;28;20020;-73
2024/04/03 10:06:04;;;;;;;1.25;0.40;;;18.60;46.70;;;;;;6289367;28;20020;-76
2024/04/03 10:09:21;;;;;;;4.35;1.20;;;18.60;46.60;;;;;;6283410;28;20108;-75
2024/04/03 10:12:22;;;;;;;3.15;0.80;;;18.50;46.60;;;;;;6303737;28;20545;-73
2024/04/03 10:15:23;;;;;;;0.80;0.47;;;18.50;46.70;;;;;;6308296;28;20168;-72
2024/04/03 10:18:27;;;;;;;6.00;0.70;;;18.50;46.80;;;;;;6304944;28;20475;-73
2024/04/03 10:21:28;;;;;;;1.77;0.90;;;18.40;46.80;;;;;;6296818;28;20279;-73
2024/04/03 10:24:30;;;;;;;4.45;2.15;;;18.30;47.00;;;;;;6288797;28;20430;-75
2024/04/03 10:27:31;;;;;;;7.28;2.65;;;18.20;47.10;;;;;;6291768;28;20433;-74
2024/04/03 10:30:31;;;;;;;11.45;3.65;;;18.20;47.30;;;;;;6287257;28;20027;-75
2024/04/03 10:33:32;;;;;;;1.77;0.52;;;18.00;47.50;;;;;;6284180;28;20504;-73
2024/04/03 10:36:33;;;;;;;2.45;1.00;;;18.00;47.80;;;;;;6282632;28;20144;-74
2024/04/03 10:39:34;;;;;;;6.93;0.90;;;17.90;48.20;;;;;;6295652;28;20302;-74
2024/04/03 10:42:35;;;;;;;6.53;1.20;;;17.80;48.70;;;;;;6308288;28;20026;-74
2024/04/03 10:45:36;;;;;;;3.30;0.90;;;17.80;49.10;;;;;;6295308;28;20070;-73
2024/04/03 10:48:41;;;;;;;0.77;0.63;;;17.70;49.30;;;;;;6298842;28;20126;-75
2024/04/03 10:51:42;;;;;;;6.45;2.67;;;17.70;49.40;;;;;;6291905;28;20123;-74
2024/04/03 10:54:43;;;;;;;6.30;2.35;;;17.70;49.60;;;;;;6283652;28;20110;-74
2024/04/03 10:57:44;;;;;;;12.50;4.28;;;17.70;49.80;;;;;;6273922;28;20413;-73
2024/04/03 11:00:45;;;;;;;2.33;1.20;;;17.70;50.00;;;;;;6307306;28;20020;-74
2024/04/03 11:03:50;;;;;;;6.40;1.48;;;17.70;50.00;;;;;;6307465;28;20163;-73
2024/04/03 11:06:51;;;;;;;2.30;1.20;;;17.80;50.40;;;;;;6269868;28;20063;-72
2024/04/03 11:09:52;;;;;;;2.83;1.58;;;17.70;51.10;;;;;;6281401;28;20068;-74
2024/04/03 11:13:03;;;;;;;8.15;2.38;;;17.70;51.60;;;;;;6287201;28;20090;-74
2024/04/03 11:16:08;;;;;;;3.42;1.65;;;17.70;52.10;;;;;;6272044;28;20050;-74
2024/04/03 11:19:09;;;;;;;6.60;2.20;;;17.70;52.70;;;;;;6298365;28;20124;-73
2024/04/03 11:22:10;;;;;;;3.97;1.50;;;17.70;53.00;;;;;;6283468;28;20029;-74
2024/04/03 11:25:12;;;;;;;3.80;1.10;;;17.70;53.40;;;;;;6290100;28;20024;-74
2024/04/03 11:28:15;;;;;;;1.30;0.90;;;17.60;53.50;;;;;;6295372;28;20445;-73
2024/04/03 11:31:15;;;;;;;2.97;1.92;;;17.60;53.60;;;;;;6292701;28;20024;-74
2024/04/03 11:34:17;;;;;;;5.75;1.48;;;17.50;53.70;;;;;;6279774;28;20604;-75
2024/04/03 11:37:17;;;;;;;1.52;0.93;;;17.40;54.10;;;;;;6291009;28;20021;-73
2024/04/03 11:40:18;;;;;;;3.30;0.77;;;17.30;54.10;;;;;;6284722;28;20036;-74
2024/04/03 11:43:19;;;;;;;2.00;0.80;;;17.20;54.20;;;;;;6282354;28;20108;-74
2024/04/03 11:46:20;;;;;;;16.10;3.35;;;17.10;54.20;;;;;;6279976;28;20046;-72
2024/04/03 11:49:21;;;;;;;9.23;3.28;;;17.20;54.30;;;;;;6273399;28;20025;-71
2024/04/03 11:52:22;;;;;;;16.58;6.78;;;17.20;54.50;;;;;;6293517;28;20028;-72
2024/04/03 11:55:23;;;;;;;10.50;3.95;;;17.20;54.60;;;;;;6277441;28;20025;-71
2024/04/03 11:58:23;;;;;;;9.98;2.60;;;17.30;54.80;;;;;;6290787;28;20438;-71
2024/04/03 12:01:25;;;;;;;4.70;2.15;;;17.30;54.80;;;;;;6306001;28;20066;-72
2024/04/03 12:04:25;;;;;;;9.52;2.55;;;17.30;54.80;;;;;;6300648;28;20016;-72
2024/04/03 12:07:26;;;;;;;5.30;1.95;;;17.30;55.00;;;;;;6309111;28;20556;-71
2024/04/03 12:10:27;;;;;;;5.78;2.30;;;17.30;55.00;;;;;;6289110;28;20436;-71
2024/04/03 12:13:28;;;;;;;4.25;2.25;;;17.40;54.90;;;;;;6303225;28;20090;-72
2024/04/03 12:16:30;;;;;;;5.65;2.15;;;17.60;54.70;;;;;;6304300;28;20440;-71
2024/04/03 12:22:51;;;;;;;8.40;2.45;;;17.80;54.30;;;;;;6305301;28;20016;-73
2024/04/03 12:25:54;;;;;;;6.43;2.05;;;18.00;54.30;;;;;;6306447;28;20542;-69
2024/04/03 12:28:54;;;;;;;8.18;1.98;;;18.20;54.30;;;;;;6303854;28;20032;-72
2024/04/03 12:31:56;;;;;;;4.13;1.52;;;18.50;53.80;;;;;;6300927;28;20140;-71
2024/04/03 12:34:56;;;;;;;3.53;1.50;;;18.70;53.60;;;;;;6293095;28;20473;-70
2024/04/03 12:37:58;;;;;;;6.97;2.40;;;18.80;53.40;;;;;;6294197;28;20040;-71
2024/04/03 12:41:00;;;;;;;4.63;1.77;;;18.90;53.20;;;;;;6288986;28;20036;-71
2024/04/03 12:44:01;;;;;;;2.22;1.27;;;19.10;53.00;;;;;;6310005;28;20020;-70
2024/04/03 12:47:06;;;;;;;3.22;1.60;;;19.00;53.00;;;;;;6279986;28;20032;-72
2024/04/03 12:50:07;;;;;;;3.20;1.40;;;19.00;52.90;;;;;;6301378;28;20097;-70
2024/04/03 12:53:08;;;;;;;6.85;1.35;;;19.10;52.90;;;;;;6309487;28;20015;-70
2024/04/03 12:56:09;;;;;;;3.35;1.20;;;19.50;52.60;;;;;;6291013;28;20112;-71
2024/04/03 12:59:10;;;;;;;2.42;1.33;;;19.80;51.80;;;;;;6308190;28;20705;-72
2024/04/03 13:02:11;;;;;;;4.80;1.98;;;19.90;51.40;;;;;;6299067;28;20039;-72
2024/04/03 13:05:12;;;;;;;9.90;2.33;;;19.90;51.20;;;;;;6307119;28;20080;-69
2024/04/03 13:08:13;;;;;;;2.40;1.13;;;19.80;51.10;;;;;;6300105;28;20480;-70
2024/04/03 13:11:13;;;;;;;5.55;1.73;;;19.80;51.10;;;;;;6309122;28;20525;-70
2024/04/03 13:14:15;;;;;;;2.47;1.17;;;19.70;51.10;;;;;;6309246;28;20024;-70
2024/04/03 13:17:16;;;;;;;2.13;1.10;;;19.60;51.20;;;;;;6300313;28;21058;-71
2024/04/03 13:20:17;;;;;;;10.52;1.73;;;19.50;51.00;;;;;;6299078;28;20032;-70
2024/04/03 13:23:17;;;;;;;3.13;1.50;;;19.50;51.10;;;;;;6295617;28;20059;-71
2024/04/03 13:26:18;;;;;;;6.32;1.17;;;19.70;51.00;;;;;;6289828;28;20086;-70
2024/04/03 13:29:19;;;;;;;8.00;1.30;;;20.20;50.40;;;;;;6297668;28;20100;-70
2024/04/03 13:32:20;;;;;;;5.53;1.17;;;20.50;49.50;;;;;;6306599;28;20028;-70
2024/04/03 13:35:21;;;;;;;2.58;1.10;;;20.70;49.20;;;;;;6290133;28;20039;-71
2024/04/03 13:38:22;;;;;;;2.90;1.10;;;21.50;48.20;;;;;;6297666;28;20054;-70
2024/04/03 13:41:23;;;;;;;10.15;1.42;;;22.00;46.80;;;;;;6309297;28;20012;-69
2024/04/03 13:44:24;;;;;;;4.30;0.75;;;21.90;46.40;;;;;;6303287;28;20125;-70
2024/04/03 13:47:24;;;;;;;4.75;2.40;;;21.70;46.60;;;;;;6306140;28;20516;-71
2024/04/03 13:50:25;;;;;;;4.93;0.93;;;21.50;46.90;;;;;;6288302;28;20024;-70
2024/04/03 13:53:26;;;;;;;2.88;1.30;;;21.20;46.80;;;;;;6295250;28;20429;-70
2024/04/03 13:56:27;;;;;;;5.72;1.23;;;20.90;47.20;;;;;;6303848;28;20123;-71
2024/04/03 14:00:21;;;;;;;6.55;1.60;;;20.60;47.50;;;;;;6291490;28;20024;-70
2024/04/03 14:03:22;;;;;;;5.32;1.40;;;20.30;47.80;;;;;;6278141;28;20049;-70
2024/04/03 14:06:23;;;;;;;2.72;1.02;;;20.10;48.10;;;;;;6306118;28;20794;-70
2024/04/03 14:09:24;;;;;;;8.85;0.98;;;20.00;48.30;;;;;;6308170;28;20111;-71
2024/04/03 14:12:24;;;;;;;4.03;1.60;;;19.80;48.20;;;;;;6309397;28;20043;-72
2024/04/03 14:15:25;;;;;;;6.90;1.50;;;19.70;48.10;;;;;;6270283;28;20039;-70
2024/04/03 14:18:26;;;;;;;6.00;2.45;;;19.60;48.10;;;;;;6291483;28;20066;-70
2024/04/03 14:21:27;;;;;;;1.13;0.90;;;19.70;48.20;;;;;;6289089;28;20023;-71
2024/04/03 14:24:29;;;;;;;2.80;0.95;;;19.90;48.10;;;;;;6305962;28;20051;-69
2024/04/03 14:27:32;;;;;;;0.85;0.57;;;20.10;47.90;;;;;;6282969;28;20020;-70
2024/04/03 14:30:35;;;;;;;2.00;0.47;;;20.30;47.70;;;;;;6298018;28;20036;-70
2024/04/03 14:33:37;;;;;;;1.88;0.60;;;20.30;47.40;;;;;;6298006;28;20035;-71
2024/04/03 14:36:38;;;;;;;2.10;0.57;;;20.30;47.20;;;;;;6307906;28;20393;-70
2024/04/03 14:39:39;;;;;;;3.95;1.58;;;20.20;47.20;;;;;;6288021;28;20024;-70
2024/04/03 14:42:39;;;;;;;1.75;0.77;;;20.30;47.10;;;;;;6292323;28;20557;-70
2024/04/03 14:45:40;;;;;;;5.25;1.90;;;20.40;46.70;;;;;;6302493;28;20031;-67
2024/04/03 14:48:41;;;;;;;2.40;0.88;;;20.50;46.10;;;;;;6299458;28;20035;-70
2024/04/03 14:51:42;;;;;;;3.95;1.73;;;20.50;45.50;;;;;;6290536;28;20039;-70
2024/04/03 14:54:49;;;;;;;5.13;1.10;;;20.50;45.60;;;;;;6304893;28;20046;-69
2024/04/03 14:57:53;;;;;;;3.38;1.08;;;20.60;46.30;;;;;;6298916;28;20020;-69
2024/04/03 15:00:53;;;;;;;2.30;1.10;;;20.50;47.20;;;;;;6295318;28;20028;-70
2024/04/03 15:03:54;;;;;;;3.50;1.00;;;20.50;48.00;;;;;;6295175;28;20429;-70
2024/04/03 15:06:55;;;;;;;1.38;0.98;;;20.40;48.40;;;;;;6306255;28;20031;-69
2024/04/03 15:09:57;;;;;;;3.28;0.70;;;20.20;48.60;;;;;;6290086;28;20024;-70
2024/04/03 15:12:58;;;;;;;1.30;1.20;;;20.00;49.10;;;;;;6300233;28;20086;-69
2024/04/03 15:15:59;;;;;;;3.90;1.48;;;19.80;49.60;;;;;;6300786;28;20032;-70
2024/04/03 15:19:00;;;;;;;1.67;0.90;;;19.60;49.90;;;;;;6278772;28;20008;-70
2024/04/03 15:22:01;;;;;;;1.75;0.75;;;19.40;49.90;;;;;;6285545;28;20020;-70
2024/04/03 15:25:02;;;;;;;2.05;1.27;;;19.30;49.90;;;;;;6288043;28;20016;-71
2024/04/03 15:28:03;;;;;;;6.20;2.20;;;19.30;49.90;;;;;;6302897;28;20123;-69
2024/04/03 15:31:05;;;;;;;2.42;1.20;;;19.30;49.90;;;;;;6298582;28;20024;-69
2024/04/03 15:34:05;;;;;;;2.72;0.82;;;19.30;49.70;;;;;;6293767;28;20635;-70
2024/04/03 15:37:08;;;;;;;3.00;1.17;;;19.30;49.60;;;;;;6288204;28;20020;-70
2024/04/03 15:40:09;;;;;;;4.88;1.75;;;19.20;49.40;;;;;;6291514;28;20048;-70
2024/04/03 15:43:10;;;;;;;5.25;1.90;;;19.30;49.60;;;;;;6304899;28;20023;-70
2024/04/03 15:46:11;;;;;;;4.60;1.15;;;19.30;50.00;;;;;;6292498;28;20020;-71
2024/04/03 15:49:11;;;;;;;1.30;0.75;;;19.30;49.30;;;;;;6290254;28;20020;-72